createdAt,value
2022-10-28T00:01:06.500Z,65.29
2022-10-28T00:03:33.583Z,65.62
2022-10-28T00:06:08.133Z,65.75
2022-10-28T00:08:35.443Z,65.98
2022-10-28T00:11:06.747Z,65.90
2022-10-28T00:13:34.098Z,65.91
2022-10-28T00:16:04.322Z,66.31
2022-10-28T00:18:31.276Z,66.18
2022-10-28T00:21:02.120Z,66.51
2022-10-28T00:23:28.904Z,66.08
2022-10-28T00:25:55.803Z,66.20
2022-10-28T00:28:22.526Z,66.44
2022-10-28T00:30:49.380Z,66.73
2022-10-28T00:33:16.235Z,66.63
2022-10-28T00:35:42.902Z,66.79
2022-10-28T00:38:09.610Z,66.57
2022-10-28T00:40:36.673Z,66.89
2022-10-28T00:43:03.440Z,66.97
2022-10-28T00:45:30.551Z,67.32
2022-10-28T00:47:58.589Z,67.34
2022-10-28T00:50:44.044Z,67.33
2022-10-28T00:53:19.252Z,67.32
2022-10-28T00:55:47.495Z,67.68
2022-10-28T00:58:15.027Z,67.67
2022-10-28T01:00:41.861Z,67.55
2022-10-28T01:03:09.753Z,67.61
2022-10-28T01:05:38.831Z,67.84
2022-10-28T01:08:05.912Z,68.06
2022-10-28T01:10:43.974Z,67.97
2022-10-28T01:13:29.510Z,68.15
2022-10-28T01:16:02.849Z,68.27
2022-10-28T01:18:32.388Z,68.43
2022-10-28T01:21:01.857Z,68.60
2022-10-28T01:23:28.542Z,68.36
2022-10-28T01:26:01.466Z,68.53
2022-10-28T01:28:43.339Z,68.65
2022-10-28T01:31:21.679Z,68.84
2022-10-28T01:34:03.940Z,69.02
2022-10-28T01:36:49.745Z,69.04
2022-10-28T01:39:42.997Z,68.68
2022-10-28T01:42:13.055Z,69.06
2022-10-28T01:44:54.091Z,69.23
2022-10-28T01:47:47.556Z,69.47
2022-10-28T01:50:44.066Z,69.19
2022-10-28T01:53:14.048Z,69.31
2022-10-28T01:55:42.795Z,69.78
2022-10-28T01:58:12.258Z,69.91
2022-10-28T02:00:39.963Z,69.84
2022-10-28T02:03:08.572Z,69.70
2022-10-28T02:05:41.520Z,69.76
2022-10-28T02:08:11.444Z,70.03
2022-10-28T02:10:41.055Z,70.29
2022-10-28T02:13:11.867Z,70.34
2022-10-28T02:15:43.637Z,70.32
2022-10-28T02:18:23.798Z,70.41
2022-10-28T02:21:01.111Z,70.36
2022-10-28T02:23:33.799Z,70.49
2022-10-28T02:26:03.303Z,70.62
2022-10-28T02:28:53.155Z,70.55
2022-10-28T02:31:25.651Z,70.87
2022-10-28T02:33:55.859Z,70.78
2022-10-28T02:36:23.691Z,70.56
2022-10-28T02:38:53.010Z,70.47
2022-10-28T02:41:21.746Z,70.41
2022-10-28T02:43:51.956Z,70.49
2022-10-28T02:46:19.428Z,70.38
2022-10-28T02:48:53.154Z,70.21
2022-10-28T02:51:21.691Z,70.04
2022-10-28T02:54:07.197Z,70.36
2022-10-28T02:56:39.876Z,70.40
2022-10-28T02:59:13.113Z,70.56
2022-10-28T03:01:40.497Z,70.27
2022-10-28T03:04:07.322Z,70.37
2022-10-28T03:06:34.076Z,70.50
2022-10-28T03:09:00.811Z,70.85
2022-10-28T03:11:27.554Z,70.93
2022-10-28T03:13:54.277Z,70.77
2022-10-28T03:16:21.042Z,70.85
2022-10-28T03:18:47.903Z,70.98
2022-10-28T03:21:14.831Z,71.11
2022-10-28T03:23:41.639Z,70.99
2022-10-28T03:26:08.387Z,71.06
2022-10-28T03:28:35.296Z,71.31
2022-10-28T03:31:02.119Z,71.02
2022-10-28T03:33:29.022Z,70.77
2022-10-28T03:35:55.872Z,71.14
2022-10-28T03:38:22.719Z,71.15
2022-10-28T03:40:50.219Z,71.18
2022-10-28T03:43:17.479Z,71.27
2022-10-28T03:45:44.616Z,71.03
2022-10-28T03:48:11.435Z,70.97
2022-10-28T03:50:38.092Z,71.38
2022-10-28T03:53:04.910Z,71.76
2022-10-28T03:55:31.633Z,71.82
2022-10-28T03:58:00.571Z,71.69
2022-10-28T04:00:27.545Z,71.84
2022-10-28T04:02:54.561Z,71.98
2022-10-28T04:05:21.826Z,72.09
2022-10-28T04:07:48.650Z,71.85
2022-10-28T04:10:15.755Z,71.82
2022-10-28T04:12:42.445Z,71.81
2022-10-28T04:15:09.371Z,71.79
2022-10-28T04:17:36.107Z,71.85
2022-10-28T04:20:03.131Z,71.98
2022-10-28T04:22:29.940Z,72.02
2022-10-28T04:24:56.776Z,72.35
2022-10-28T04:27:23.460Z,72.36
2022-10-28T04:29:50.503Z,72.40
2022-10-28T04:32:17.190Z,72.08
2022-10-28T04:34:43.921Z,71.59
2022-10-28T04:37:10.831Z,72.06
2022-10-28T04:39:37.552Z,72.28
2022-10-28T04:42:04.482Z,72.11
2022-10-28T04:44:31.220Z,72.44
2022-10-28T04:46:58.217Z,72.74
2022-10-28T04:49:24.935Z,72.64
2022-10-28T04:51:51.721Z,72.90
2022-10-28T04:54:18.429Z,72.98
2022-10-28T04:56:45.399Z,73.10
2022-10-28T04:59:12.182Z,73.02
2022-10-28T05:01:39.001Z,72.88
2022-10-28T05:04:05.806Z,73.13
2022-10-28T05:06:32.654Z,73.18
2022-10-28T05:08:59.329Z,73.15
2022-10-28T05:11:26.178Z,73.29
2022-10-28T05:13:55.914Z,73.47
2022-10-28T05:16:23.195Z,73.33
2022-10-28T05:18:49.898Z,73.53
2022-10-28T05:21:16.959Z,73.54
2022-10-28T05:23:43.867Z,73.69
2022-10-28T05:26:10.626Z,73.63
2022-10-28T05:28:37.461Z,73.59
2022-10-28T05:31:04.185Z,73.61
2022-10-28T05:33:31.158Z,73.68
2022-10-28T05:35:58.710Z,73.34
2022-10-28T05:38:27.650Z,73.24
2022-10-28T05:40:54.331Z,73.29
2022-10-28T05:43:21.203Z,73.06
2022-10-28T05:45:54.703Z,72.95
2022-10-28T05:48:21.884Z,72.88
2022-10-28T05:50:49.060Z,72.82
2022-10-28T05:53:16.261Z,72.58
2022-10-28T05:55:46.777Z,72.22
2022-10-28T05:58:16.567Z,72.53
2022-10-28T06:00:43.313Z,72.66
2022-10-28T06:03:11.063Z,72.48
2022-10-28T06:05:39.401Z,72.53
2022-10-28T06:08:06.651Z,72.45
2022-10-28T06:10:34.075Z,72.26
2022-10-28T06:12:59.241Z,72.25
2022-10-28T06:15:25.967Z,72.14
2022-10-28T06:17:52.844Z,72.29
2022-10-28T06:20:19.560Z,72.38
2022-10-28T06:22:47.371Z,72.07
2022-10-28T06:25:14.523Z,72.00
2022-10-28T06:27:41.471Z,71.96
2022-10-28T06:30:08.448Z,72.10
2022-10-28T06:32:35.394Z,71.99
2022-10-28T06:35:02.233Z,71.90
2022-10-28T06:37:28.950Z,71.96
2022-10-28T06:39:57.358Z,71.86
2022-10-28T06:42:24.230Z,71.92
2022-10-28T06:44:51.176Z,72.00
2022-10-28T06:47:19.538Z,71.91
2022-10-28T06:49:46.362Z,71.66
2022-10-28T06:52:13.312Z,71.34
2022-10-28T06:54:40.115Z,71.18
2022-10-28T06:57:06.977Z,71.06
2022-10-28T06:59:33.697Z,71.05
2022-10-28T07:02:00.924Z,71.25
2022-10-28T07:04:27.734Z,71.33
2022-10-28T07:06:55.564Z,71.49
2022-10-28T07:09:22.446Z,71.66
2022-10-28T07:11:53.569Z,71.72
2022-10-28T07:14:21.975Z,71.68
2022-10-28T07:16:48.677Z,71.67
2022-10-28T07:19:19.033Z,71.33
2022-10-28T07:21:48.623Z,71.22
2022-10-28T07:24:15.618Z,71.00
2022-10-28T07:26:42.402Z,70.74
2022-10-28T07:29:10.279Z,70.58
2022-10-28T07:31:37.136Z,70.86
2022-10-28T07:34:03.982Z,70.95
2022-10-28T07:36:30.799Z,70.56
2022-10-28T07:38:57.548Z,70.11
2022-10-28T07:41:24.413Z,70.12
2022-10-28T07:43:51.219Z,70.07
2022-10-28T07:46:18.869Z,69.66
2022-10-28T07:48:46.066Z,69.36
2022-10-28T07:51:14.879Z,69.27
2022-10-28T07:53:41.624Z,69.30
2022-10-28T07:56:10.247Z,69.17
2022-10-28T07:58:47.219Z,69.23
2022-10-28T08:01:15.863Z,68.82
2022-10-28T08:03:42.640Z,68.16
2022-10-28T08:06:10.947Z,68.18
2022-10-28T08:08:37.894Z,68.05
2022-10-28T08:11:11.817Z,67.85
2022-10-28T08:13:40.176Z,67.95
2022-10-28T08:16:08.300Z,67.60
2022-10-28T08:18:35.680Z,66.97
2022-10-28T08:21:03.177Z,66.73
2022-10-28T08:23:30.139Z,66.65
2022-10-28T08:25:56.990Z,66.58
2022-10-28T08:28:24.193Z,66.88
2022-10-28T08:31:04.140Z,66.70
2022-10-28T08:33:38.508Z,66.50
2022-10-28T08:36:06.008Z,65.94
2022-10-28T08:38:32.720Z,65.73
2022-10-28T08:41:05.451Z,65.64
2022-10-28T08:43:52.835Z,65.37
2022-10-28T08:46:26.912Z,65.20
2022-10-28T08:48:54.081Z,65.31
2022-10-28T08:51:41.499Z,65.04
2022-10-28T08:54:20.741Z,64.97
2022-10-28T08:56:48.932Z,64.46
2022-10-28T08:59:29.579Z,64.36
2022-10-28T09:02:01.069Z,64.04
2022-10-28T09:04:30.878Z,64.04
2022-10-28T09:06:57.706Z,64.02
2022-10-28T09:09:24.629Z,63.88
2022-10-28T09:11:51.313Z,63.80
2022-10-28T09:14:36.457Z,63.29
2022-10-28T09:17:10.111Z,62.90
2022-10-28T09:19:49.283Z,62.85
2022-10-28T09:22:22.525Z,63.06
2022-10-28T09:25:01.666Z,63.15
2022-10-28T09:27:47.096Z,63.08
2022-10-28T09:30:32.705Z,62.67
2022-10-28T09:33:05.541Z,62.22
2022-10-28T09:35:37.618Z,61.71
2022-10-28T09:38:22.732Z,61.59
2022-10-28T09:40:52.842Z,61.02
2022-10-28T09:43:26.092Z,61.02
2022-10-28T09:45:55.664Z,61.29
2022-10-28T09:48:24.703Z,60.51
2022-10-28T09:50:52.984Z,60.48
2022-10-28T09:53:35.953Z,59.88
2022-10-28T09:56:03.943Z,59.84
2022-10-28T09:58:32.135Z,59.69
2022-10-28T10:00:59.030Z,59.08
2022-10-28T10:03:25.806Z,58.92
2022-10-28T10:05:54.466Z,58.03
2022-10-28T10:08:22.688Z,58.09
2022-10-28T10:10:49.593Z,57.63
2022-10-28T10:13:18.665Z,57.75
2022-10-28T10:15:48.897Z,57.86
2022-10-28T10:18:18.665Z,57.36
2022-10-28T10:20:51.733Z,57.29
2022-10-28T10:23:23.414Z,57.20
2022-10-28T10:26:09.684Z,57.07
2022-10-28T10:28:43.449Z,56.97
2022-10-28T10:31:17.954Z,55.60
2022-10-28T10:33:48.969Z,55.78
2022-10-28T10:36:17.418Z,55.62
2022-10-28T10:38:57.959Z,55.71
2022-10-28T10:41:34.439Z,55.53
2022-10-28T10:44:01.424Z,55.36
2022-10-28T10:46:28.225Z,54.35
2022-10-28T10:49:12.819Z,53.65
2022-10-28T10:51:41.817Z,52.32
2022-10-28T10:54:14.433Z,51.94
2022-10-28T10:56:41.750Z,52.67
2022-10-28T10:59:19.785Z,52.67
2022-10-28T11:01:46.811Z,51.97
2022-10-28T11:04:18.428Z,50.25
2022-10-28T11:06:49.097Z,50.32
2022-10-28T11:09:35.673Z,49.19
2022-10-28T11:12:14.230Z,47.98
2022-10-28T11:14:53.178Z,47.82
2022-10-28T11:17:24.833Z,49.52
2022-10-28T11:19:53.804Z,47.66
2022-10-28T11:22:26.877Z,47.28
2022-10-28T11:25:16.515Z,47.43
2022-10-28T11:27:57.587Z,46.60
2022-10-28T11:30:45.809Z,45.58
2022-10-28T11:33:29.896Z,45.81
2022-10-28T11:36:03.615Z,45.97
2022-10-28T11:38:47.168Z,46.09
2022-10-28T11:41:13.842Z,45.93
2022-10-28T11:43:55.057Z,45.74
2022-10-28T11:46:31.676Z,45.18
2022-10-28T11:48:58.606Z,45.58
2022-10-28T11:51:31.934Z,44.88
2022-10-28T11:54:12.143Z,45.31
2022-10-28T11:56:44.915Z,43.91
2022-10-28T11:59:14.855Z,43.77
2022-10-28T12:01:48.905Z,43.77
2022-10-28T12:04:41.021Z,44.18
2022-10-28T12:07:20.064Z,45.01
2022-10-28T12:09:59.469Z,45.58
2022-10-28T12:12:55.848Z,45.67
2022-10-28T12:15:45.909Z,45.11
2022-10-28T12:18:21.829Z,44.29
2022-10-28T12:20:59.748Z,44.91
2022-10-28T12:23:27.374Z,44.63
2022-10-28T12:25:57.365Z,44.41
2022-10-28T12:28:27.425Z,44.82
2022-10-28T12:30:55.250Z,44.97
2022-10-28T12:33:33.505Z,44.82
2022-10-28T12:36:10.050Z,44.85
2022-10-28T12:38:45.769Z,43.95
2022-10-28T12:41:21.197Z,43.76
2022-10-28T12:44:08.652Z,43.84
2022-10-28T12:46:35.518Z,43.60
2022-10-28T12:49:05.587Z,43.86
2022-10-28T12:51:38.685Z,44.42
2022-10-28T12:54:16.923Z,44.34
2022-10-28T12:56:59.387Z,44.26
2022-10-28T12:59:29.549Z,44.04
2022-10-28T13:01:56.812Z,43.81
2022-10-28T13:04:23.633Z,44.14
2022-10-28T13:07:20.041Z,44.01
2022-10-28T13:09:58.873Z,43.92
2022-10-28T13:12:41.045Z,44.01
2022-10-28T13:15:26.454Z,44.46
2022-10-28T13:18:05.559Z,44.48
2022-10-28T13:20:52.537Z,44.82
2022-10-28T13:23:40.708Z,44.45
2022-10-28T13:26:22.251Z,44.25
2022-10-28T13:28:50.745Z,44.28
2022-10-28T13:31:18.589Z,44.18
2022-10-28T13:33:58.089Z,43.68
2022-10-28T13:36:26.317Z,43.60
2022-10-28T13:38:54.904Z,43.82
2022-10-28T13:41:30.965Z,43.62
2022-10-28T13:43:59.628Z,43.89
2022-10-28T13:46:45.451Z,43.86
2022-10-28T13:49:35.485Z,43.99
2022-10-28T13:52:08.425Z,43.59
2022-10-28T13:54:44.630Z,43.12
2022-10-28T13:57:30.757Z,43.32
2022-10-28T13:59:59.422Z,43.75
2022-10-28T14:02:36.675Z,43.68
2022-10-28T14:05:10.906Z,44.59
2022-10-28T14:07:50.739Z,43.48
2022-10-28T14:10:27.888Z,43.32
2022-10-28T14:12:58.060Z,43.19
2022-10-28T14:15:34.035Z,43.31
2022-10-28T14:18:10.293Z,43.42
2022-10-28T14:20:46.285Z,43.39
2022-10-28T14:23:22.314Z,43.75
2022-10-28T14:25:52.029Z,43.97
2022-10-28T14:28:27.802Z,44.10
2022-10-28T14:31:12.898Z,43.84
2022-10-28T14:33:42.889Z,43.78
2022-10-28T14:36:21.717Z,43.38
2022-10-28T14:39:03.536Z,42.95
2022-10-28T14:41:48.804Z,42.81
2022-10-28T14:44:15.689Z,43.55
2022-10-28T14:47:11.933Z,43.86
2022-10-28T14:49:40.100Z,44.29
2022-10-28T14:52:16.934Z,44.63
2022-10-28T14:54:49.173Z,44.58
2022-10-28T14:57:19.949Z,44.84
2022-10-28T14:59:46.790Z,44.93
2022-10-28T15:02:18.745Z,45.34
2022-10-28T15:04:47.063Z,45.49
2022-10-28T15:07:18.238Z,45.77
2022-10-28T15:09:47.634Z,45.96
2022-10-28T15:12:17.223Z,46.37
2022-10-28T15:14:52.286Z,46.39
2022-10-28T15:17:20.791Z,46.64
2022-10-28T15:19:49.551Z,47.17
2022-10-28T15:22:21.508Z,47.39
2022-10-28T15:25:00.745Z,47.63
2022-10-28T15:27:32.217Z,48.00
2022-10-28T15:29:59.632Z,48.33
2022-10-28T15:32:30.776Z,48.34
2022-10-28T15:34:58.243Z,48.50
2022-10-28T15:37:27.348Z,48.59
2022-10-28T15:40:12.379Z,48.59
2022-10-28T15:42:44.794Z,49.14
2022-10-28T15:45:24.240Z,49.13
2022-10-28T15:47:51.863Z,49.35
2022-10-28T15:50:19.019Z,49.97
2022-10-28T15:52:50.251Z,49.97
2022-10-28T15:55:21.775Z,49.90
2022-10-28T15:57:54.889Z,50.15
2022-10-28T16:00:23.169Z,50.30
2022-10-28T16:02:56.070Z,50.51
2022-10-28T16:05:32.390Z,50.54
2022-10-28T16:07:59.249Z,51.07
2022-10-28T16:10:28.275Z,51.15
2022-10-28T16:12:55.111Z,50.96
2022-10-28T16:15:22.048Z,51.19
2022-10-28T16:17:48.911Z,51.94
2022-10-28T16:20:19.456Z,51.31
2022-10-28T16:22:46.690Z,51.03
2022-10-28T16:25:15.319Z,50.53
2022-10-28T16:27:42.423Z,50.56
2022-10-28T16:30:09.882Z,50.63
2022-10-28T16:32:37.762Z,51.27
2022-10-28T16:35:10.101Z,51.27
2022-10-28T16:37:41.843Z,51.09
2022-10-28T16:40:30.686Z,50.91
2022-10-28T16:42:58.563Z,51.16
2022-10-28T16:45:25.254Z,51.67
2022-10-28T16:47:52.139Z,51.23
2022-10-28T16:50:19.111Z,51.45
2022-10-28T16:52:46.102Z,51.92
2022-10-28T16:55:16.506Z,51.77
2022-10-28T16:57:43.317Z,52.05
2022-10-28T17:00:12.721Z,51.75
2022-10-28T17:02:39.588Z,51.77
2022-10-28T17:05:07.435Z,52.06
2022-10-28T17:07:34.137Z,52.06
2022-10-28T17:10:01.033Z,51.88
2022-10-28T17:12:27.744Z,51.84
2022-10-28T17:14:54.651Z,52.19
2022-10-28T17:17:21.563Z,52.03
2022-10-28T17:19:48.397Z,52.48
2022-10-28T17:22:15.211Z,52.67
2022-10-28T17:24:43.489Z,52.54
2022-10-28T17:27:10.184Z,52.93
2022-10-28T17:29:37.088Z,52.60
2022-10-28T17:32:04.052Z,52.66
2022-10-28T17:34:31.005Z,52.83
2022-10-28T17:36:57.806Z,52.58
2022-10-28T17:39:26.372Z,52.96
2022-10-28T17:41:54.034Z,52.88
2022-10-28T17:44:21.148Z,52.94
2022-10-28T17:46:48.530Z,52.92
2022-10-28T17:49:15.585Z,52.68
2022-10-28T17:51:42.347Z,52.99
2022-10-28T17:54:09.418Z,52.92
2022-10-28T17:56:36.376Z,53.54
2022-10-28T17:59:04.416Z,53.81
2022-10-28T18:01:32.251Z,53.57
2022-10-28T18:03:59.116Z,54.23
2022-10-28T18:06:26.270Z,54.25
2022-10-28T18:08:52.974Z,54.07
2022-10-28T18:11:20.511Z,53.80
2022-10-28T18:13:53.600Z,54.23
2022-10-28T18:16:22.396Z,53.69
2022-10-28T18:18:49.208Z,53.89
2022-10-28T18:21:16.198Z,54.02
2022-10-28T18:23:42.987Z,54.18
2022-10-28T18:26:11.678Z,54.31
2022-10-28T18:28:38.861Z,54.47
2022-10-28T18:31:16.257Z,54.57
2022-10-28T18:33:43.665Z,54.85
2022-10-28T18:36:12.181Z,54.65
2022-10-28T18:38:39.006Z,54.59
2022-10-28T18:41:09.780Z,54.57
2022-10-28T18:43:36.513Z,54.06
2022-10-28T18:46:03.458Z,54.00
2022-10-28T18:48:31.893Z,53.55
2022-10-28T18:50:59.688Z,53.67
2022-10-28T18:53:26.934Z,53.97
2022-10-28T18:55:54.001Z,54.15
2022-10-28T18:58:20.932Z,54.11
2022-10-28T19:00:47.669Z,54.41
2022-10-28T19:03:19.274Z,54.52
2022-10-28T19:05:46.308Z,54.50
2022-10-28T19:08:13.385Z,54.93
2022-10-28T19:10:40.303Z,55.34
2022-10-28T19:13:07.095Z,55.52
2022-10-28T19:15:39.250Z,55.65
2022-10-28T19:18:06.047Z,55.75
2022-10-28T19:20:32.846Z,55.67
2022-10-28T19:23:01.099Z,55.49
2022-10-28T19:25:27.900Z,55.18
2022-10-28T19:27:54.580Z,56.13
2022-10-28T19:30:21.595Z,56.08
2022-10-28T19:32:48.329Z,56.12
2022-10-28T19:35:15.780Z,56.68
2022-10-28T19:37:42.618Z,56.71
2022-10-28T19:40:09.592Z,56.51
2022-10-28T19:42:38.808Z,56.83
2022-10-28T19:45:06.005Z,56.83
2022-10-28T19:47:32.896Z,56.50
2022-10-28T19:49:59.934Z,56.71
2022-10-28T19:52:26.641Z,56.98
2022-10-28T19:54:53.322Z,57.38
2022-10-28T19:57:20.177Z,57.65
2022-10-28T19:59:46.867Z,57.54
2022-10-28T20:02:13.724Z,57.59
2022-10-28T20:04:40.537Z,57.68
2022-10-28T20:07:07.238Z,57.79
2022-10-28T20:09:34.157Z,58.17
2022-10-28T20:12:01.891Z,58.29
2022-10-28T20:14:29.140Z,58.43
2022-10-28T20:16:56.140Z,58.41
2022-10-28T20:19:22.990Z,58.39
2022-10-28T20:21:50.812Z,58.58
2022-10-28T20:24:17.824Z,58.98
2022-10-28T20:26:44.654Z,58.53
2022-10-28T20:29:11.422Z,58.65
2022-10-28T20:31:41.268Z,58.87
2022-10-28T20:34:08.073Z,58.86
2022-10-28T20:36:34.799Z,59.10
2022-10-28T20:39:03.611Z,59.54
2022-10-28T20:41:31.456Z,59.56
2022-10-28T20:43:58.307Z,59.84
2022-10-28T20:46:25.842Z,59.87
2022-10-28T20:48:54.320Z,59.92
2022-10-28T20:51:21.545Z,60.24
2022-10-28T20:53:48.882Z,60.49
2022-10-28T20:56:17.374Z,60.57
2022-10-28T20:58:44.548Z,60.47
2022-10-28T21:01:19.296Z,60.71
2022-10-28T21:03:46.556Z,60.81
2022-10-28T21:06:15.367Z,60.78
2022-10-28T21:08:43.426Z,60.71
2022-10-28T21:11:11.334Z,60.74
2022-10-28T21:13:38.110Z,61.17
2022-10-28T21:16:05.926Z,61.17
2022-10-28T21:18:33.149Z,61.53
2022-10-28T21:21:00.269Z,61.54
2022-10-28T21:23:27.628Z,61.52
2022-10-28T21:25:55.486Z,61.38
2022-10-28T21:28:22.656Z,61.58
2022-10-28T21:30:49.444Z,61.72
2022-10-28T21:33:17.755Z,62.00
2022-10-28T21:35:44.493Z,62.24
2022-10-28T21:38:12.935Z,62.31
2022-10-28T21:40:39.717Z,62.33
2022-10-28T21:43:09.018Z,62.38
2022-10-28T21:45:35.703Z,62.59
2022-10-28T21:48:02.407Z,62.85
2022-10-28T21:50:29.231Z,62.93
2022-10-28T21:55:41.987Z,63.11
2022-10-28T21:58:13.029Z,63.27
2022-10-28T22:00:39.751Z,63.28
2022-10-28T22:03:06.620Z,63.45
2022-10-28T22:05:34.573Z,63.68
2022-10-28T22:08:04.430Z,63.92
2022-10-28T22:10:31.808Z,63.76
2022-10-28T22:12:58.661Z,63.55
2022-10-28T22:15:25.513Z,63.82
2022-10-28T22:17:52.522Z,64.02
2022-10-28T22:20:19.610Z,64.17
2022-10-28T22:22:46.544Z,64.52
2022-10-28T22:25:13.226Z,64.12
2022-10-28T22:27:40.177Z,64.39
2022-10-28T22:30:07.125Z,64.87
2022-10-28T22:32:34.004Z,65.17
2022-10-28T22:35:00.739Z,65.19
2022-10-28T22:37:27.462Z,64.49
2022-10-28T22:39:54.335Z,64.63
2022-10-28T22:42:20.994Z,64.80
2022-10-28T22:44:48.122Z,65.32
2022-10-28T22:47:14.792Z,65.48
2022-10-28T22:49:41.533Z,65.52
2022-10-28T22:52:08.320Z,65.47
2022-10-28T22:54:34.981Z,65.57
2022-10-28T22:57:01.851Z,65.61
2022-10-28T22:59:28.573Z,65.65
2022-10-28T23:01:55.472Z,65.71
2022-10-28T23:04:22.301Z,65.69
2022-10-28T23:06:49.203Z,65.79
2022-10-28T23:09:15.861Z,66.05
2022-10-28T23:11:42.679Z,65.94
2022-10-28T23:14:09.348Z,66.08
2022-10-28T23:16:36.426Z,66.04
2022-10-28T23:19:03.185Z,66.47
2022-10-28T23:21:30.121Z,66.14
2022-10-28T23:23:57.872Z,66.37
2022-10-28T23:26:25.520Z,66.39
2022-10-28T23:28:53.164Z,66.55
2022-10-28T23:31:20.633Z,66.80
2022-10-28T23:33:47.612Z,66.90
2022-10-28T23:36:15.207Z,67.11
2022-10-28T23:38:42.405Z,67.23
2022-10-28T23:41:10.636Z,67.26
2022-10-28T23:43:37.909Z,67.38
2022-10-28T23:46:05.067Z,67.30
2022-10-28T23:48:31.852Z,67.29
2022-10-28T23:50:58.822Z,67.45
2022-10-28T23:53:25.551Z,67.40
2022-10-28T23:55:52.777Z,67.23
2022-10-28T23:58:20.374Z,67.31
